sensor_id;sensor_type;location;lat;lon;timestamp;P1;durP1;ratioP1;P2;durP2;ratioP2
76610;SDS011;65503;48.534;9.062;2023-02-28T00:01:02;5.20;;;2.88;;
76610;SDS011;65503;48.534;9.062;2023-02-28T00:03:29;5.85;;;2.55;;
76610;SDS011;65503;48.534;9.062;2023-02-28T00:05:55;8.23;;;2.60;;
76610;SDS011;65503;48.534;9.062;2023-02-28T00:08:22;5.45;;;2.85;;
76610;SDS011;65503;48.534;9.062;2023-02-28T00:10:48;9.90;;;3.58;;
76610;SDS011;65503;48.534;9.062;2023-02-28T00:13:14;5.50;;;2.72;;
76610;SDS011;65503;48.534;9.062;2023-02-28T00:15:41;5.80;;;2.78;;
76610;SDS011;65503;48.534;9.062;2023-02-28T00:18:08;6.78;;;3.13;;
76610;SDS011;65503;48.534;9.062;2023-02-28T00:20:34;6.55;;;2.92;;
76610;SDS011;65503;48.534;9.062;2023-02-28T00:23:00;9.85;;;3.75;;
76610;SDS011;65503;48.534;9.062;2023-02-28T00:25:27;7.20;;;2.75;;
76610;SDS011;65503;48.534;9.062;2023-02-28T00:27:53;7.22;;;2.90;;
76610;SDS011;65503;48.534;9.062;2023-02-28T00:30:20;5.20;;;2.78;;
76610;SDS011;65503;48.534;9.062;2023-02-28T00:32:49;6.80;;;2.67;;
76610;SDS011;65503;48.534;9.062;2023-02-28T00:35:16;9.73;;;3.20;;
76610;SDS011;65503;48.534;9.062;2023-02-28T00:37:43;8.88;;;3.42;;
76610;SDS011;65503;48.534;9.062;2023-02-28T00:40:10;7.30;;;3.05;;
76610;SDS011;65503;48.534;9.062;2023-02-28T00:42:38;5.03;;;2.35;;
76610;SDS011;65503;48.534;9.062;2023-02-28T00:45:06;5.88;;;2.65;;
76610;SDS011;65503;48.534;9.062;2023-02-28T00:47:34;7.88;;;2.88;;
76610;SDS011;65503;48.534;9.062;2023-02-28T00:50:01;5.40;;;2.40;;
76610;SDS011;65503;48.534;9.062;2023-02-28T00:52:28;6.38;;;2.75;;
76610;SDS011;65503;48.534;9.062;2023-02-28T00:54:55;6.93;;;2.95;;
76610;SDS011;65503;48.534;9.062;2023-02-28T00:57:21;6.57;;;2.85;;
76610;SDS011;65503;48.534;9.062;2023-02-28T00:59:48;8.02;;;3.10;;
76610;SDS011;65503;48.534;9.062;2023-02-28T01:02:15;8.85;;;2.80;;
76610;SDS011;65503;48.534;9.062;2023-02-28T01:04:42;6.20;;;2.63;;
76610;SDS011;65503;48.534;9.062;2023-02-28T01:07:08;7.25;;;3.20;;
76610;SDS011;65503;48.534;9.062;2023-02-28T01:09:35;6.00;;;2.83;;
76610;SDS011;65503;48.534;9.062;2023-02-28T01:12:01;7.15;;;2.83;;
76610;SDS011;65503;48.534;9.062;2023-02-28T01:14:28;6.40;;;2.97;;
76610;SDS011;65503;48.534;9.062;2023-02-28T01:16:55;6.80;;;2.50;;
76610;SDS011;65503;48.534;9.062;2023-02-28T01:19:21;7.03;;;3.10;;
76610;SDS011;65503;48.534;9.062;2023-02-28T01:21:48;6.72;;;3.45;;
76610;SDS011;65503;48.534;9.062;2023-02-28T01:24:14;6.93;;;2.67;;
76610;SDS011;65503;48.534;9.062;2023-02-28T01:26:41;7.32;;;3.03;;
76610;SDS011;65503;48.534;9.062;2023-02-28T01:29:08;7.75;;;3.20;;
76610;SDS011;65503;48.534;9.062;2023-02-28T01:31:34;5.00;;;2.33;;
76610;SDS011;65503;48.534;9.062;2023-02-28T01:34:01;4.72;;;2.58;;
76610;SDS011;65503;48.534;9.062;2023-02-28T01:36:28;6.20;;;2.70;;
76610;SDS011;65503;48.534;9.062;2023-02-28T01:38:55;5.80;;;2.95;;
76610;SDS011;65503;48.534;9.062;2023-02-28T01:41:23;8.45;;;3.42;;
76610;SDS011;65503;48.534;9.062;2023-02-28T01:43:54;7.65;;;3.30;;
76610;SDS011;65503;48.534;9.062;2023-02-28T01:46:33;5.97;;;2.53;;
76610;SDS011;65503;48.534;9.062;2023-02-28T01:54:07;6.70;;;3.03;;
76610;SDS011;65503;48.534;9.062;2023-02-28T01:56:41;7.40;;;3.17;;
76610;SDS011;65503;48.534;9.062;2023-02-28T01:59:13;7.55;;;2.78;;
76610;SDS011;65503;48.534;9.062;2023-02-28T02:01:43;7.78;;;2.90;;
76610;SDS011;65503;48.534;9.062;2023-02-28T02:04:10;5.45;;;2.47;;
76610;SDS011;65503;48.534;9.062;2023-02-28T02:06:38;7.45;;;3.30;;
76610;SDS011;65503;48.534;9.062;2023-02-28T02:09:08;7.25;;;3.22;;
76610;SDS011;65503;48.534;9.062;2023-02-28T02:11:34;5.60;;;3.17;;
76610;SDS011;65503;48.534;9.062;2023-02-28T02:31:04;8.77;;;3.70;;
76610;SDS011;65503;48.534;9.062;2023-02-28T02:37:02;6.13;;;3.13;;
76610;SDS011;65503;48.534;9.062;2023-02-28T02:45:12;7.97;;;3.50;;
76610;SDS011;65503;48.534;9.062;2023-02-28T02:47:45;7.38;;;3.20;;
76610;SDS011;65503;48.534;9.062;2023-02-28T02:50:13;6.22;;;2.63;;
76610;SDS011;65503;48.534;9.062;2023-02-28T02:52:51;6.90;;;3.22;;
76610;SDS011;65503;48.534;9.062;2023-02-28T02:55:21;6.55;;;3.60;;
76610;SDS011;65503;48.534;9.062;2023-02-28T02:57:54;8.85;;;3.42;;
76610;SDS011;65503;48.534;9.062;2023-02-28T03:00:30;6.25;;;3.13;;
76610;SDS011;65503;48.534;9.062;2023-02-28T03:03:01;8.35;;;3.65;;
76610;SDS011;65503;48.534;9.062;2023-02-28T03:05:30;10.60;;;3.75;;
76610;SDS011;65503;48.534;9.062;2023-02-28T03:08:05;8.85;;;3.90;;
76610;SDS011;65503;48.534;9.062;2023-02-28T03:10:39;7.75;;;3.70;;
76610;SDS011;65503;48.534;9.062;2023-02-28T03:30:22;7.95;;;3.47;;
76610;SDS011;65503;48.534;9.062;2023-02-28T03:32:58;8.18;;;3.30;;
76610;SDS011;65503;48.534;9.062;2023-02-28T03:35:53;8.93;;;3.85;;
76610;SDS011;65503;48.534;9.062;2023-02-28T03:41:04;6.93;;;3.20;;
76610;SDS011;65503;48.534;9.062;2023-02-28T03:43:35;7.68;;;3.78;;
76610;SDS011;65503;48.534;9.062;2023-02-28T03:46:09;8.18;;;4.00;;
76610;SDS011;65503;48.534;9.062;2023-02-28T03:49:02;7.40;;;3.95;;
76610;SDS011;65503;48.534;9.062;2023-02-28T03:51:35;9.25;;;3.90;;
76610;SDS011;65503;48.534;9.062;2023-02-28T03:54:04;8.35;;;3.80;;
76610;SDS011;65503;48.534;9.062;2023-02-28T03:56:37;5.75;;;3.42;;
76610;SDS011;65503;48.534;9.062;2023-02-28T03:59:14;10.02;;;4.32;;
76610;SDS011;65503;48.534;9.062;2023-02-28T04:01:42;8.82;;;4.20;;
76610;SDS011;65503;48.534;9.062;2023-02-28T04:04:11;6.90;;;3.78;;
76610;SDS011;65503;48.534;9.062;2023-02-28T04:06:39;7.43;;;4.05;;
76610;SDS011;65503;48.534;9.062;2023-02-28T04:09:07;7.55;;;3.97;;
76610;SDS011;65503;48.534;9.062;2023-02-28T04:14:06;7.90;;;3.78;;
76610;SDS011;65503;48.534;9.062;2023-02-28T04:16:38;8.02;;;4.32;;
76610;SDS011;65503;48.534;9.062;2023-02-28T04:19:06;8.05;;;4.00;;
76610;SDS011;65503;48.534;9.062;2023-02-28T04:21:35;9.93;;;4.50;;
76610;SDS011;65503;48.534;9.062;2023-02-28T04:24:05;7.10;;;3.78;;
76610;SDS011;65503;48.534;9.062;2023-02-28T04:26:34;8.63;;;4.32;;
76610;SDS011;65503;48.534;9.062;2023-02-28T04:29:05;8.50;;;4.00;;
76610;SDS011;65503;48.534;9.062;2023-02-28T04:31:32;9.35;;;4.07;;
76610;SDS011;65503;48.534;9.062;2023-02-28T04:33:59;11.05;;;4.72;;
76610;SDS011;65503;48.534;9.062;2023-02-28T04:36:26;9.35;;;3.92;;
76610;SDS011;65503;48.534;9.062;2023-02-28T04:38:53;10.32;;;4.63;;
76610;SDS011;65503;48.534;9.062;2023-02-28T04:41:20;8.25;;;4.15;;
76610;SDS011;65503;48.534;9.062;2023-02-28T04:43:47;9.93;;;4.18;;
76610;SDS011;65503;48.534;9.062;2023-02-28T04:46:14;8.05;;;4.15;;
76610;SDS011;65503;48.534;9.062;2023-02-28T04:48:41;10.27;;;4.03;;
76610;SDS011;65503;48.534;9.062;2023-02-28T04:51:10;7.72;;;3.95;;
76610;SDS011;65503;48.534;9.062;2023-02-28T04:53:39;10.48;;;4.53;;
76610;SDS011;65503;48.534;9.062;2023-02-28T04:56:07;9.30;;;4.40;;
76610;SDS011;65503;48.534;9.062;2023-02-28T04:58:36;9.60;;;4.82;;
76610;SDS011;65503;48.534;9.062;2023-02-28T05:01:04;8.63;;;4.50;;
76610;SDS011;65503;48.534;9.062;2023-02-28T05:03:39;9.27;;;4.28;;
76610;SDS011;65503;48.534;9.062;2023-02-28T05:06:09;10.10;;;4.55;;
76610;SDS011;65503;48.534;9.062;2023-02-28T05:08:36;10.30;;;4.85;;
76610;SDS011;65503;48.534;9.062;2023-02-28T05:11:04;10.13;;;4.60;;
76610;SDS011;65503;48.534;9.062;2023-02-28T05:13:32;9.80;;;4.45;;
76610;SDS011;65503;48.534;9.062;2023-02-28T05:15:58;9.43;;;4.80;;
76610;SDS011;65503;48.534;9.062;2023-02-28T05:18:25;9.35;;;4.68;;
76610;SDS011;65503;48.534;9.062;2023-02-28T05:20:51;12.60;;;5.20;;
76610;SDS011;65503;48.534;9.062;2023-02-28T05:23:18;10.90;;;4.85;;
76610;SDS011;65503;48.534;9.062;2023-02-28T05:25:47;11.63;;;5.60;;
76610;SDS011;65503;48.534;9.062;2023-02-28T05:28:14;10.23;;;4.82;;
76610;SDS011;65503;48.534;9.062;2023-02-28T05:30:40;10.80;;;4.65;;
76610;SDS011;65503;48.534;9.062;2023-02-28T05:33:09;10.23;;;5.45;;
76610;SDS011;65503;48.534;9.062;2023-02-28T05:35:38;9.35;;;4.90;;
76610;SDS011;65503;48.534;9.062;2023-02-28T05:38:05;11.80;;;4.68;;
76610;SDS011;65503;48.534;9.062;2023-02-28T05:40:32;10.90;;;4.70;;
76610;SDS011;65503;48.534;9.062;2023-02-28T05:42:58;11.75;;;5.45;;
76610;SDS011;65503;48.534;9.062;2023-02-28T05:45:25;12.07;;;5.28;;
76610;SDS011;65503;48.534;9.062;2023-02-28T05:47:55;9.45;;;5.07;;
76610;SDS011;65503;48.534;9.062;2023-02-28T05:50:22;9.30;;;4.90;;
76610;SDS011;65503;48.534;9.062;2023-02-28T05:52:49;12.63;;;5.50;;
76610;SDS011;65503;48.534;9.062;2023-02-28T05:55:16;13.82;;;6.55;;
76610;SDS011;65503;48.534;9.062;2023-02-28T05:57:43;12.60;;;5.80;;
76610;SDS011;65503;48.534;9.062;2023-02-28T06:00:10;14.35;;;5.63;;
76610;SDS011;65503;48.534;9.062;2023-02-28T06:02:38;11.15;;;5.60;;
76610;SDS011;65503;48.534;9.062;2023-02-28T06:05:07;12.43;;;6.50;;
76610;SDS011;65503;48.534;9.062;2023-02-28T06:07:39;11.10;;;5.60;;
76610;SDS011;65503;48.534;9.062;2023-02-28T06:10:06;12.98;;;5.63;;
76610;SDS011;65503;48.534;9.062;2023-02-28T06:12:33;14.35;;;5.38;;
76610;SDS011;65503;48.534;9.062;2023-02-28T06:15:00;13.68;;;5.93;;
76610;SDS011;65503;48.534;9.062;2023-02-28T06:17:26;14.27;;;6.93;;
76610;SDS011;65503;48.534;9.062;2023-02-28T06:19:53;12.13;;;5.50;;
76610;SDS011;65503;48.534;9.062;2023-02-28T06:22:19;11.63;;;5.47;;
76610;SDS011;65503;48.534;9.062;2023-02-28T06:24:46;10.63;;;5.75;;
76610;SDS011;65503;48.534;9.062;2023-02-28T06:27:12;10.88;;;5.03;;
76610;SDS011;65503;48.534;9.062;2023-02-28T06:29:39;10.30;;;5.63;;
76610;SDS011;65503;48.534;9.062;2023-02-28T06:32:06;10.55;;;4.95;;
76610;SDS011;65503;48.534;9.062;2023-02-28T06:34:32;11.40;;;5.72;;
76610;SDS011;65503;48.534;9.062;2023-02-28T06:37:00;9.88;;;5.50;;
76610;SDS011;65503;48.534;9.062;2023-02-28T06:39:29;17.23;;;5.75;;
76610;SDS011;65503;48.534;9.062;2023-02-28T06:41:56;11.20;;;6.15;;
76610;SDS011;65503;48.534;9.062;2023-02-28T06:44:23;12.77;;;5.68;;
76610;SDS011;65503;48.534;9.062;2023-02-28T06:46:50;10.82;;;5.68;;
76610;SDS011;65503;48.534;9.062;2023-02-28T06:49:17;11.90;;;6.28;;
76610;SDS011;65503;48.534;9.062;2023-02-28T06:51:44;16.48;;;6.72;;
76610;SDS011;65503;48.534;9.062;2023-02-28T06:54:11;11.32;;;5.30;;
76610;SDS011;65503;48.534;9.062;2023-02-28T06:56:38;13.18;;;5.70;;
76610;SDS011;65503;48.534;9.062;2023-02-28T06:59:05;15.43;;;5.97;;
76610;SDS011;65503;48.534;9.062;2023-02-28T07:01:32;10.00;;;5.35;;
76610;SDS011;65503;48.534;9.062;2023-02-28T07:03:59;12.05;;;5.75;;
76610;SDS011;65503;48.534;9.062;2023-02-28T07:06:26;15.35;;;6.00;;
76610;SDS011;65503;48.534;9.062;2023-02-28T07:08:53;10.55;;;6.00;;
76610;SDS011;65503;48.534;9.062;2023-02-28T07:11:20;12.07;;;5.68;;
76610;SDS011;65503;48.534;9.062;2023-02-28T07:13:49;12.10;;;5.75;;
76610;SDS011;65503;48.534;9.062;2023-02-28T07:16:17;11.55;;;6.35;;
76610;SDS011;65503;48.534;9.062;2023-02-28T07:18:43;9.60;;;5.30;;
76610;SDS011;65503;48.534;9.062;2023-02-28T07:21:10;12.38;;;6.68;;
76610;SDS011;65503;48.534;9.062;2023-02-28T07:23:37;12.50;;;6.05;;
76610;SDS011;65503;48.534;9.062;2023-02-28T07:26:05;12.43;;;6.35;;
76610;SDS011;65503;48.534;9.062;2023-02-28T07:28:33;24.90;;;7.22;;
76610;SDS011;65503;48.534;9.062;2023-02-28T07:31:03;12.68;;;6.15;;
76610;SDS011;65503;48.534;9.062;2023-02-28T07:33:31;12.15;;;5.75;;
76610;SDS011;65503;48.534;9.062;2023-02-28T07:36:07;13.43;;;6.43;;
76610;SDS011;65503;48.534;9.062;2023-02-28T07:38:40;14.45;;;6.80;;
76610;SDS011;65503;48.534;9.062;2023-02-28T07:41:07;13.23;;;6.00;;
76610;SDS011;65503;48.534;9.062;2023-02-28T07:43:34;14.10;;;6.85;;
76610;SDS011;65503;48.534;9.062;2023-02-28T07:46:11;18.52;;;7.60;;
76610;SDS011;65503;48.534;9.062;2023-02-28T07:48:41;12.93;;;6.28;;
76610;SDS011;65503;48.534;9.062;2023-02-28T07:51:08;12.45;;;6.40;;
76610;SDS011;65503;48.534;9.062;2023-02-28T07:53:35;12.05;;;6.72;;
76610;SDS011;65503;48.534;9.062;2023-02-28T07:56:02;15.57;;;6.68;;
76610;SDS011;65503;48.534;9.062;2023-02-28T07:58:29;13.38;;;6.28;;
76610;SDS011;65503;48.534;9.062;2023-02-28T08:00:56;13.40;;;7.47;;
76610;SDS011;65503;48.534;9.062;2023-02-28T08:03:24;14.98;;;6.63;;
76610;SDS011;65503;48.534;9.062;2023-02-28T08:05:51;16.73;;;7.03;;
76610;SDS011;65503;48.534;9.062;2023-02-28T08:08:18;14.82;;;6.97;;
76610;SDS011;65503;48.534;9.062;2023-02-28T08:10:45;12.70;;;6.80;;
76610;SDS011;65503;48.534;9.062;2023-02-28T08:13:11;14.35;;;7.03;;
76610;SDS011;65503;48.534;9.062;2023-02-28T08:15:38;13.60;;;6.95;;
76610;SDS011;65503;48.534;9.062;2023-02-28T08:18:07;13.48;;;6.22;;
76610;SDS011;65503;48.534;9.062;2023-02-28T08:20:37;14.75;;;6.82;;
76610;SDS011;65503;48.534;9.062;2023-02-28T08:23:03;12.68;;;6.70;;
76610;SDS011;65503;48.534;9.062;2023-02-28T08:25:30;14.57;;;6.63;;
76610;SDS011;65503;48.534;9.062;2023-02-28T08:27:56;12.77;;;6.70;;
76610;SDS011;65503;48.534;9.062;2023-02-28T08:30:23;12.10;;;6.82;;
76610;SDS011;65503;48.534;9.062;2023-02-28T08:32:49;12.50;;;6.72;;
76610;SDS011;65503;48.534;9.062;2023-02-28T08:35:16;17.17;;;6.95;;
76610;SDS011;65503;48.534;9.062;2023-02-28T08:37:42;15.48;;;7.18;;
76610;SDS011;65503;48.534;9.062;2023-02-28T08:40:09;12.10;;;7.10;;
76610;SDS011;65503;48.534;9.062;2023-02-28T08:42:36;18.52;;;7.82;;
76610;SDS011;65503;48.534;9.062;2023-02-28T08:45:03;14.63;;;6.97;;
76610;SDS011;65503;48.534;9.062;2023-02-28T08:47:30;12.35;;;7.22;;
76610;SDS011;65503;48.534;9.062;2023-02-28T08:49:56;13.18;;;7.07;;
76610;SDS011;65503;48.534;9.062;2023-02-28T08:52:22;16.73;;;8.43;;
76610;SDS011;65503;48.534;9.062;2023-02-28T08:54:49;13.80;;;6.43;;
76610;SDS011;65503;48.534;9.062;2023-02-28T08:57:15;15.95;;;7.93;;
76610;SDS011;65503;48.534;9.062;2023-02-28T08:59:42;15.25;;;7.22;;
76610;SDS011;65503;48.534;9.062;2023-02-28T09:02:10;15.60;;;7.50;;
76610;SDS011;65503;48.534;9.062;2023-02-28T09:04:39;14.88;;;8.00;;
76610;SDS011;65503;48.534;9.062;2023-02-28T09:07:05;15.30;;;7.68;;
76610;SDS011;65503;48.534;9.062;2023-02-28T09:09:32;21.40;;;8.20;;
76610;SDS011;65503;48.534;9.062;2023-02-28T09:11:58;15.02;;;7.60;;
76610;SDS011;65503;48.534;9.062;2023-02-28T09:14:25;14.32;;;7.82;;
76610;SDS011;65503;48.534;9.062;2023-02-28T09:16:51;15.38;;;7.43;;
76610;SDS011;65503;48.534;9.062;2023-02-28T09:19:18;14.30;;;7.20;;
76610;SDS011;65503;48.534;9.062;2023-02-28T09:21:44;16.25;;;7.47;;
76610;SDS011;65503;48.534;9.062;2023-02-28T09:24:11;15.38;;;7.68;;
76610;SDS011;65503;48.534;9.062;2023-02-28T09:26:40;14.88;;;7.78;;
76610;SDS011;65503;48.534;9.062;2023-02-28T09:29:16;15.43;;;7.60;;
76610;SDS011;65503;48.534;9.062;2023-02-28T09:31:43;18.42;;;7.90;;
76610;SDS011;65503;48.534;9.062;2023-02-28T09:34:10;13.90;;;8.27;;
76610;SDS011;65503;48.534;9.062;2023-02-28T09:36:37;16.50;;;7.88;;
76610;SDS011;65503;48.534;9.062;2023-02-28T09:39:11;13.98;;;7.55;;
76610;SDS011;65503;48.534;9.062;2023-02-28T09:41:44;13.45;;;7.80;;
76610;SDS011;65503;48.534;9.062;2023-02-28T09:44:36;14.48;;;7.63;;
76610;SDS011;65503;48.534;9.062;2023-02-28T09:47:47;15.45;;;8.00;;
76610;SDS011;65503;48.534;9.062;2023-02-28T09:53:27;14.95;;;7.00;;
76610;SDS011;65503;48.534;9.062;2023-02-28T09:56:18;14.57;;;7.20;;
76610;SDS011;65503;48.534;9.062;2023-02-28T10:04:51;15.07;;;7.72;;
76610;SDS011;65503;48.534;9.062;2023-02-28T10:12:44;14.23;;;7.05;;
76610;SDS011;65503;48.534;9.062;2023-02-28T10:15:13;15.65;;;8.25;;
76610;SDS011;65503;48.534;9.062;2023-02-28T10:17:43;13.45;;;7.78;;
76610;SDS011;65503;48.534;9.062;2023-02-28T10:20:33;13.35;;;7.63;;
76610;SDS011;65503;48.534;9.062;2023-02-28T10:23:05;15.90;;;8.02;;
76610;SDS011;65503;48.534;9.062;2023-02-28T10:25:39;15.80;;;6.93;;
76610;SDS011;65503;48.534;9.062;2023-02-28T10:28:13;14.95;;;7.47;;
76610;SDS011;65503;48.534;9.062;2023-02-28T10:30:42;13.52;;;6.25;;
76610;SDS011;65503;48.534;9.062;2023-02-28T10:33:23;16.20;;;8.40;;
76610;SDS011;65503;48.534;9.062;2023-02-28T10:35:52;12.63;;;7.45;;
76610;SDS011;65503;48.534;9.062;2023-02-28T10:38:26;15.10;;;7.80;;
76610;SDS011;65503;48.534;9.062;2023-02-28T10:41:07;15.60;;;7.68;;
76610;SDS011;65503;48.534;9.062;2023-02-28T10:43:36;14.95;;;7.68;;
76610;SDS011;65503;48.534;9.062;2023-02-28T10:48:41;15.63;;;8.25;;
76610;SDS011;65503;48.534;9.062;2023-02-28T10:51:15;14.43;;;7.38;;
76610;SDS011;65503;48.534;9.062;2023-02-28T10:53:48;12.02;;;6.93;;
76610;SDS011;65503;48.534;9.062;2023-02-28T10:56:27;14.32;;;8.52;;
76610;SDS011;65503;48.534;9.062;2023-02-28T10:58:58;14.63;;;7.65;;
76610;SDS011;65503;48.534;9.062;2023-02-28T11:03:56;14.13;;;7.40;;
76610;SDS011;65503;48.534;9.062;2023-02-28T11:06:30;15.55;;;7.50;;
76610;SDS011;65503;48.534;9.062;2023-02-28T11:09:03;12.88;;;7.75;;
76610;SDS011;65503;48.534;9.062;2023-02-28T11:11:41;14.73;;;7.63;;
76610;SDS011;65503;48.534;9.062;2023-02-28T11:14:18;13.65;;;7.53;;
76610;SDS011;65503;48.534;9.062;2023-02-28T11:16:48;15.07;;;7.93;;
76610;SDS011;65503;48.534;9.062;2023-02-28T11:19:18;15.13;;;8.32;;
76610;SDS011;65503;48.534;9.062;2023-02-28T11:21:52;11.50;;;7.03;;
76610;SDS011;65503;48.534;9.062;2023-02-28T11:24:23;13.75;;;7.32;;
76610;SDS011;65503;48.534;9.062;2023-02-28T11:26:53;13.68;;;7.75;;
76610;SDS011;65503;48.534;9.062;2023-02-28T11:29:25;14.35;;;8.00;;
76610;SDS011;65503;48.534;9.062;2023-02-28T11:34:40;14.20;;;8.05;;
76610;SDS011;65503;48.534;9.062;2023-02-28T11:37:11;16.63;;;6.90;;
76610;SDS011;65503;48.534;9.062;2023-02-28T11:39:41;16.13;;;8.50;;
76610;SDS011;65503;48.534;9.062;2023-02-28T11:50:50;13.45;;;7.55;;
76610;SDS011;65503;48.534;9.062;2023-02-28T11:56:32;16.25;;;7.78;;
76610;SDS011;65503;48.534;9.062;2023-02-28T12:02:05;15.73;;;8.88;;
76610;SDS011;65503;48.534;9.062;2023-02-28T12:10:51;13.63;;;7.82;;
76610;SDS011;65503;48.534;9.062;2023-02-28T12:19:18;15.48;;;8.65;;
76610;SDS011;65503;48.534;9.062;2023-02-28T12:22:06;14.07;;;7.93;;
76610;SDS011;65503;48.534;9.062;2023-02-28T12:27:31;14.27;;;8.18;;
76610;SDS011;65503;48.534;9.062;2023-02-28T12:30:04;15.60;;;8.40;;
76610;SDS011;65503;48.534;9.062;2023-02-28T12:32:41;12.68;;;8.15;;
76610;SDS011;65503;48.534;9.062;2023-02-28T12:35:12;14.93;;;8.82;;
76610;SDS011;65503;48.534;9.062;2023-02-28T12:37:51;18.05;;;8.40;;
76610;SDS011;65503;48.534;9.062;2023-02-28T12:40:23;13.77;;;7.70;;
76610;SDS011;65503;48.534;9.062;2023-02-28T12:42:56;14.20;;;8.23;;
76610;SDS011;65503;48.534;9.062;2023-02-28T12:48:13;15.52;;;8.70;;
76610;SDS011;65503;48.534;9.062;2023-02-28T12:50:45;13.00;;;7.43;;
76610;SDS011;65503;48.534;9.062;2023-02-28T12:58:36;15.48;;;8.30;;
76610;SDS011;65503;48.534;9.062;2023-02-28T13:09:11;15.70;;;8.40;;
76610;SDS011;65503;48.534;9.062;2023-02-28T13:11:45;13.00;;;8.65;;
76610;SDS011;65503;48.534;9.062;2023-02-28T13:19:37;14.52;;;8.57;;
76610;SDS011;65503;48.534;9.062;2023-02-28T13:22:15;16.33;;;8.32;;
76610;SDS011;65503;48.534;9.062;2023-02-28T13:24:48;15.15;;;8.82;;
76610;SDS011;65503;48.534;9.062;2023-02-28T13:29:51;14.85;;;9.45;;
76610;SDS011;65503;48.534;9.062;2023-02-28T13:32:26;15.93;;;8.30;;
76610;SDS011;65503;48.534;9.062;2023-02-28T13:39:59;15.65;;;8.48;;
76610;SDS011;65503;48.534;9.062;2023-02-28T13:42:52;14.73;;;9.05;;
76610;SDS011;65503;48.534;9.062;2023-02-28T13:45:28;16.48;;;8.48;;
76610;SDS011;65503;48.534;9.062;2023-02-28T13:48:17;15.73;;;8.48;;
76610;SDS011;65503;48.534;9.062;2023-02-28T13:50:45;15.48;;;8.30;;
76610;SDS011;65503;48.534;9.062;2023-02-28T13:55:43;17.48;;;9.52;;
76610;SDS011;65503;48.534;9.062;2023-02-28T14:04:07;15.55;;;9.10;;
76610;SDS011;65503;48.534;9.062;2023-02-28T14:06:37;15.32;;;8.88;;
76610;SDS011;65503;48.534;9.062;2023-02-28T14:11:38;14.90;;;8.70;;
76610;SDS011;65503;48.534;9.062;2023-02-28T14:14:07;15.90;;;8.60;;
76610;SDS011;65503;48.534;9.062;2023-02-28T14:16:45;16.13;;;9.05;;
76610;SDS011;65503;48.534;9.062;2023-02-28T14:19:19;15.20;;;8.82;;
76610;SDS011;65503;48.534;9.062;2023-02-28T14:30:21;15.05;;;8.00;;
76610;SDS011;65503;48.534;9.062;2023-02-28T14:38:57;16.00;;;8.30;;
76610;SDS011;65503;48.534;9.062;2023-02-28T14:41:31;14.50;;;8.00;;
76610;SDS011;65503;48.534;9.062;2023-02-28T14:44:12;15.32;;;7.88;;
76610;SDS011;65503;48.534;9.062;2023-02-28T14:46:41;15.80;;;8.18;;
76610;SDS011;65503;48.534;9.062;2023-02-28T14:49:16;15.52;;;8.23;;
76610;SDS011;65503;48.534;9.062;2023-02-28T14:51:49;13.88;;;8.13;;
76610;SDS011;65503;48.534;9.062;2023-02-28T14:54:27;15.80;;;8.32;;
76610;SDS011;65503;48.534;9.062;2023-02-28T14:56:54;13.13;;;7.82;;
76610;SDS011;65503;48.534;9.062;2023-02-28T14:59:26;15.00;;;7.95;;
76610;SDS011;65503;48.534;9.062;2023-02-28T15:04:42;16.35;;;7.97;;
76610;SDS011;65503;48.534;9.062;2023-02-28T15:07:09;15.20;;;8.50;;
76610;SDS011;65503;48.534;9.062;2023-02-28T15:09:37;15.02;;;8.57;;
76610;SDS011;65503;48.534;9.062;2023-02-28T15:12:03;17.58;;;8.48;;
76610;SDS011;65503;48.534;9.062;2023-02-28T15:14:30;12.82;;;8.05;;
76610;SDS011;65503;48.534;9.062;2023-02-28T15:17:00;15.52;;;8.77;;
76610;SDS011;65503;48.534;9.062;2023-02-28T15:19:32;18.20;;;8.77;;
76610;SDS011;65503;48.534;9.062;2023-02-28T15:22:06;13.57;;;7.93;;
76610;SDS011;65503;48.534;9.062;2023-02-28T15:24:41;15.35;;;7.55;;
76610;SDS011;65503;48.534;9.062;2023-02-28T15:27:15;15.57;;;7.80;;
76610;SDS011;65503;48.534;9.062;2023-02-28T15:29:48;12.95;;;7.78;;
76610;SDS011;65503;48.534;9.062;2023-02-28T15:32:24;20.40;;;8.38;;
76610;SDS011;65503;48.534;9.062;2023-02-28T15:35:24;15.77;;;8.05;;
76610;SDS011;65503;48.534;9.062;2023-02-28T15:37:54;15.25;;;8.20;;
76610;SDS011;65503;48.534;9.062;2023-02-28T15:40:28;14.05;;;8.18;;
76610;SDS011;65503;48.534;9.062;2023-02-28T15:43:06;16.65;;;8.15;;
76610;SDS011;65503;48.534;9.062;2023-02-28T15:48:21;14.02;;;7.50;;
76610;SDS011;65503;48.534;9.062;2023-02-28T15:50:49;17.33;;;7.93;;
76610;SDS011;65503;48.534;9.062;2023-02-28T15:53:30;14.32;;;7.78;;
76610;SDS011;65503;48.534;9.062;2023-02-28T15:56:00;17.20;;;9.65;;
76610;SDS011;65503;48.534;9.062;2023-02-28T15:58:29;16.42;;;8.38;;
76610;SDS011;65503;48.534;9.062;2023-02-28T16:01:39;17.25;;;8.20;;
76610;SDS011;65503;48.534;9.062;2023-02-28T16:03:53;14.55;;;8.73;;
76610;SDS011;65503;48.534;9.062;2023-02-28T16:08:59;18.88;;;8.15;;
76610;SDS011;65503;48.534;9.062;2023-02-28T16:11:26;21.33;;;9.65;;
76610;SDS011;65503;48.534;9.062;2023-02-28T16:13:53;15.73;;;8.38;;
76610;SDS011;65503;48.534;9.062;2023-02-28T16:16:21;18.45;;;8.27;;
76610;SDS011;65503;48.534;9.062;2023-02-28T16:18:50;16.75;;;8.45;;
76610;SDS011;65503;48.534;9.062;2023-02-28T16:21:17;14.10;;;7.63;;
76610;SDS011;65503;48.534;9.062;2023-02-28T16:23:44;21.60;;;9.85;;
76610;SDS011;65503;48.534;9.062;2023-02-28T16:26:16;18.85;;;9.90;;
76610;SDS011;65503;48.534;9.062;2023-02-28T16:28:47;18.90;;;8.63;;
76610;SDS011;65503;48.534;9.062;2023-02-28T16:31:14;15.38;;;8.00;;
76610;SDS011;65503;48.534;9.062;2023-02-28T16:36:14;14.77;;;7.85;;
76610;SDS011;65503;48.534;9.062;2023-02-28T16:38:45;17.17;;;8.50;;
76610;SDS011;65503;48.534;9.062;2023-02-28T16:41:12;15.77;;;7.55;;
76610;SDS011;65503;48.534;9.062;2023-02-28T16:43:46;14.80;;;8.05;;
76610;SDS011;65503;48.534;9.062;2023-02-28T16:46:14;12.60;;;7.05;;
76610;SDS011;65503;48.534;9.062;2023-02-28T16:48:46;14.80;;;8.75;;
76610;SDS011;65503;48.534;9.062;2023-02-28T16:51:17;14.90;;;7.90;;
76610;SDS011;65503;48.534;9.062;2023-02-28T16:53:44;18.38;;;8.50;;
76610;SDS011;65503;48.534;9.062;2023-02-28T16:56:29;14.48;;;7.20;;
76610;SDS011;65503;48.534;9.062;2023-02-28T16:58:58;13.95;;;7.55;;
76610;SDS011;65503;48.534;9.062;2023-02-28T17:01:26;15.95;;;7.70;;
76610;SDS011;65503;48.534;9.062;2023-02-28T17:03:55;14.48;;;7.15;;
76610;SDS011;65503;48.534;9.062;2023-02-28T17:06:23;13.82;;;7.45;;
76610;SDS011;65503;48.534;9.062;2023-02-28T17:08:54;14.32;;;7.57;;
76610;SDS011;65503;48.534;9.062;2023-02-28T17:11:21;13.70;;;7.53;;
76610;SDS011;65503;48.534;9.062;2023-02-28T17:13:48;15.48;;;8.23;;
76610;SDS011;65503;48.534;9.062;2023-02-28T17:18:51;15.23;;;7.78;;
76610;SDS011;65503;48.534;9.062;2023-02-28T17:21:19;14.98;;;7.82;;
76610;SDS011;65503;48.534;9.062;2023-02-28T17:23:45;16.15;;;8.63;;
76610;SDS011;65503;48.534;9.062;2023-02-28T17:26:15;15.20;;;7.60;;
76610;SDS011;65503;48.534;9.062;2023-02-28T17:28:46;13.88;;;7.95;;
76610;SDS011;65503;48.534;9.062;2023-02-28T17:31:13;16.35;;;8.23;;
76610;SDS011;65503;48.534;9.062;2023-02-28T17:33:41;14.57;;;7.72;;
76610;SDS011;65503;48.534;9.062;2023-02-28T17:36:10;15.90;;;7.90;;
76610;SDS011;65503;48.534;9.062;2023-02-28T17:38:41;14.98;;;8.25;;
76610;SDS011;65503;48.534;9.062;2023-02-28T17:41:09;14.63;;;7.90;;
76610;SDS011;65503;48.534;9.062;2023-02-28T17:43:36;18.80;;;8.60;;
76610;SDS011;65503;48.534;9.062;2023-02-28T17:46:03;15.20;;;8.25;;
76610;SDS011;65503;48.534;9.062;2023-02-28T17:48:31;17.75;;;9.18;;